createdAt,value
2022-08-08T00:01:21.169Z,9.80
2022-08-08T00:04:37.939Z,8.27
2022-08-08T00:07:21.724Z,8.63
2022-08-08T00:10:17.749Z,9.57
2022-08-08T00:13:20.931Z,9.10
2022-08-08T00:16:24.317Z,8.73
2022-08-08T00:18:54.344Z,9.45
2022-08-08T00:21:39.687Z,9.13
2022-08-08T00:24:34.674Z,9.93
2022-08-08T00:27:07.102Z,9.65
2022-08-08T00:29:47.085Z,9.48
2022-08-08T00:32:38.830Z,9.68
2022-08-08T00:35:28.528Z,9.65
2022-08-08T00:38:07.659Z,10.00
2022-08-08T00:41:54.595Z,9.68
2022-08-08T00:44:57.755Z,9.32
2022-08-08T00:48:05.114Z,9.77
2022-08-08T00:51:15.206Z,9.05
2022-08-08T00:54:13.472Z,9.80
2022-08-08T00:57:08.680Z,9.25
2022-08-08T01:00:09.569Z,9.75
2022-08-08T01:03:57.572Z,10.10
2022-08-08T01:06:39.325Z,10.18
2022-08-08T01:09:35.641Z,8.90
2022-08-08T01:12:37.550Z,9.52
2022-08-08T01:15:50.317Z,9.48
2022-08-08T01:18:53.594Z,9.63
2022-08-08T01:22:12.234Z,8.93
2022-08-08T01:25:00.675Z,9.77
2022-08-08T01:27:46.185Z,9.55
2022-08-08T01:31:00.127Z,9.65
2022-08-08T01:34:00.743Z,9.48
2022-08-08T01:37:13.864Z,8.65
2022-08-08T01:40:00.091Z,8.68
2022-08-08T01:42:53.349Z,9.30
2022-08-08T01:45:45.583Z,9.45
2022-08-08T01:48:43.820Z,9.32
2022-08-08T01:52:32.556Z,9.10
2022-08-08T01:55:26.039Z,9.35
2022-08-08T01:58:11.642Z,8.15
2022-08-08T02:01:02.890Z,9.80
2022-08-08T02:03:54.886Z,8.77
2022-08-08T02:07:04.061Z,9.68
2022-08-08T02:10:03.306Z,9.88
2022-08-08T02:12:42.754Z,9.40
2022-08-08T02:15:21.934Z,10.13
2022-08-08T02:18:10.302Z,9.50
2022-08-08T02:21:34.114Z,8.98
2022-08-08T02:27:19.009Z,9.35
2022-08-08T02:30:13.093Z,10.25
2022-08-08T02:33:10.190Z,10.82
2022-08-08T02:36:02.652Z,12.05
2022-08-08T02:38:51.492Z,11.32
2022-08-08T02:42:04.074Z,11.77
2022-08-08T02:44:58.017Z,10.93
2022-08-08T02:47:33.819Z,10.73
2022-08-08T02:50:20.464Z,10.35
2022-08-08T02:53:17.208Z,10.65
2022-08-08T02:56:08.553Z,10.18
2022-08-08T02:59:17.260Z,10.05
2022-08-08T03:02:30.239Z,9.30
2022-08-08T03:05:03.296Z,11.13
2022-08-08T03:07:57.635Z,9.55
2022-08-08T03:11:05.245Z,9.88
2022-08-08T03:16:01.148Z,9.55
2022-08-08T03:17:08.509Z,10.65
2022-08-08T03:20:03.764Z,10.50
2022-08-08T03:22:51.023Z,9.77
2022-08-08T03:25:35.845Z,10.55
2022-08-08T03:30:36.538Z,10.18
2022-08-08T03:33:55.511Z,10.30
2022-08-08T03:36:19.482Z,8.90
2022-08-08T03:38:58.463Z,10.07
2022-08-08T03:42:12.651Z,9.35
2022-08-08T03:44:34.526Z,9.45
2022-08-08T03:47:14.075Z,8.68
2022-08-08T03:50:00.188Z,8.48
2022-08-08T03:52:35.349Z,8.50
2022-08-08T03:55:55.242Z,8.57
2022-08-08T03:58:09.598Z,9.23
2022-08-08T04:01:01.958Z,8.05
2022-08-08T04:04:00.295Z,8.15
2022-08-08T04:06:29.357Z,8.23
2022-08-08T04:09:06.779Z,7.95
2022-08-08T04:11:58.015Z,7.85
2022-08-08T04:14:34.072Z,7.93
2022-08-08T04:17:07.151Z,7.07
2022-08-08T04:19:50.463Z,6.60
2022-08-08T04:22:19.118Z,6.93
2022-08-08T04:24:51.354Z,6.75
2022-08-08T04:27:42.617Z,6.78
2022-08-08T04:30:18.590Z,7.50
2022-08-08T04:32:50.980Z,7.43
2022-08-08T04:35:22.556Z,6.43
2022-08-08T04:37:51.951Z,6.90
2022-08-08T04:40:24.071Z,7.18
2022-08-08T04:42:56.961Z,6.57
2022-08-08T04:45:33.475Z,6.65
2022-08-08T04:48:01.722Z,6.75
2022-08-08T04:50:38.352Z,6.28
2022-08-08T04:53:52.395Z,7.00
2022-08-08T04:55:58.844Z,5.78
2022-08-08T04:58:30.508Z,6.85
2022-08-08T05:00:58.533Z,6.10
2022-08-08T05:04:09.598Z,6.78
2022-08-08T05:06:25.257Z,7.60
2022-08-08T05:08:54.284Z,5.72
2022-08-08T05:11:26.194Z,6.68
2022-08-08T05:14:01.411Z,7.25
2022-08-08T05:16:55.525Z,8.18
2022-08-08T05:20:12.406Z,7.68
2022-08-08T05:22:10.230Z,7.20
2022-08-08T05:24:41.669Z,7.93
2022-08-08T05:27:15.801Z,7.65
2022-08-08T05:29:43.124Z,8.35
2022-08-08T05:32:12.638Z,7.50
2022-08-08T05:34:46.448Z,7.28
2022-08-08T05:39:53.025Z,6.60
2022-08-08T05:42:51.759Z,6.22
2022-08-08T05:45:30.567Z,6.25
2022-08-08T05:48:08.638Z,6.43
2022-08-08T05:50:38.696Z,5.53
2022-08-08T05:53:55.401Z,5.65
2022-08-08T05:56:10.002Z,5.78
2022-08-08T05:58:54.034Z,5.38
2022-08-08T06:01:56.358Z,4.75
2022-08-08T06:04:23.476Z,4.60
2022-08-08T06:07:01.941Z,5.03
2022-08-08T06:10:00.267Z,5.25
2022-08-08T06:12:29.712Z,5.40
2022-08-08T06:15:07.739Z,5.32
2022-08-08T06:17:51.079Z,5.25
2022-08-08T06:20:28.904Z,5.40
2022-08-08T06:22:57.838Z,5.35
2022-08-08T06:26:35.963Z,6.00
2022-08-08T06:28:34.996Z,5.05
2022-08-08T06:31:05.435Z,5.43
2022-08-08T06:34:26.150Z,6.05
2022-08-08T06:36:53.332Z,5.32
2022-08-08T06:39:25.838Z,5.65
2022-08-08T06:42:02.632Z,5.72
2022-08-08T06:44:48.687Z,5.78
2022-08-08T06:47:15.705Z,5.10
2022-08-08T06:49:55.988Z,5.78
2022-08-08T06:52:27.746Z,5.00
2022-08-08T06:54:58.675Z,5.00
2022-08-08T06:57:29.462Z,5.55
2022-08-08T07:00:14.610Z,5.28
2022-08-08T07:02:45.827Z,5.60
2022-08-08T07:05:20.648Z,5.90
2022-08-08T07:07:52.760Z,5.07
2022-08-08T07:10:25.935Z,5.38
2022-08-08T07:12:58.647Z,6.18
2022-08-08T07:16:04.649Z,6.18
2022-08-08T07:18:51.857Z,5.97
2022-08-08T07:21:30.999Z,6.38
2022-08-08T07:24:04.809Z,6.47
2022-08-08T07:26:46.930Z,5.57
2022-08-08T07:29:20.649Z,5.82
2022-08-08T07:32:10.323Z,5.63
2022-08-08T07:35:00.170Z,6.15
2022-08-08T07:37:56.444Z,5.72
2022-08-08T07:40:48.433Z,6.47
2022-08-08T07:43:35.247Z,5.35
2022-08-08T07:46:23.598Z,6.22
2022-08-08T07:48:56.964Z,6.75
2022-08-08T07:51:44.972Z,6.07
2022-08-08T07:54:32.723Z,7.10
2022-08-08T07:57:09.015Z,6.68
2022-08-08T07:59:55.882Z,6.20
2022-08-08T08:02:37.092Z,6.68
2022-08-08T08:05:20.478Z,6.35
2022-08-08T08:07:55.761Z,6.05
2022-08-08T08:10:33.324Z,6.40
2022-08-08T08:13:25.443Z,6.15
2022-08-08T08:16:17.072Z,6.22
2022-08-08T08:18:56.108Z,5.57
2022-08-08T08:21:44.431Z,6.43
2022-08-08T08:24:32.488Z,6.03
2022-08-08T08:27:03.647Z,6.22
2022-08-08T08:29:33.383Z,6.38
2022-08-08T08:32:05.684Z,5.55
2022-08-08T08:34:35.901Z,5.35
2022-08-08T08:37:07.999Z,5.03
2022-08-08T08:39:39.226Z,4.43
2022-08-08T08:42:29.083Z,4.45
2022-08-08T08:45:21.097Z,4.47
2022-08-08T08:47:54.479Z,4.20
2022-08-08T08:50:32.472Z,4.13
2022-08-08T08:53:55.360Z,4.60
2022-08-08T08:56:07.791Z,4.60
2022-08-08T08:58:46.931Z,4.43
2022-08-08T09:01:24.305Z,5.07
2022-08-08T09:03:55.608Z,4.38
2022-08-08T09:06:33.607Z,4.95
2022-08-08T09:09:40.025Z,4.28
2022-08-08T09:12:23.129Z,5.10
2022-08-08T09:14:53.847Z,4.57
2022-08-08T09:17:40.711Z,4.40
2022-08-08T09:21:57.641Z,5.30
2022-08-08T09:23:04.461Z,4.38
2022-08-08T09:25:57.831Z,4.70
2022-08-08T09:28:35.572Z,4.18
2022-08-08T09:31:15.619Z,4.32
2022-08-08T09:34:15.521Z,3.97
2022-08-08T09:36:40.335Z,4.00
2022-08-08T09:39:21.815Z,3.92
2022-08-08T09:42:20.044Z,3.88
2022-08-08T09:45:04.061Z,3.63
2022-08-08T09:48:05.120Z,3.70
2022-08-08T09:50:32.470Z,3.40
2022-08-08T09:53:23.656Z,3.40
2022-08-08T09:56:04.113Z,3.13
2022-08-08T09:58:44.545Z,3.30
2022-08-08T10:01:14.453Z,3.53
2022-08-08T10:03:46.066Z,3.90
2022-08-08T10:06:26.703Z,3.28
2022-08-08T10:08:56.844Z,3.60
2022-08-08T10:12:26.664Z,4.18
2022-08-08T10:14:28.606Z,4.30
2022-08-08T10:16:58.922Z,3.78
2022-08-08T10:19:46.128Z,4.25
2022-08-08T10:22:27.496Z,4.30
2022-08-08T10:25:15.479Z,3.88
2022-08-08T10:27:43.644Z,3.95
2022-08-08T10:30:16.794Z,3.60
2022-08-08T10:33:00.691Z,3.47
2022-08-08T10:36:09.452Z,3.85
2022-08-08T10:38:20.227Z,4.53
2022-08-08T10:40:52.106Z,4.03
2022-08-08T10:43:22.978Z,4.30
2022-08-08T10:45:56.913Z,4.20
2022-08-08T10:48:59.162Z,3.78
2022-08-08T10:51:47.269Z,3.50
2022-08-08T10:54:24.713Z,3.80
2022-08-08T10:56:59.944Z,3.53
2022-08-08T10:59:27.129Z,4.03
2022-08-08T11:01:58.632Z,3.80
2022-08-08T11:04:39.292Z,4.45
2022-08-08T11:07:06.635Z,4.05
2022-08-08T11:09:34.654Z,4.38
2022-08-08T11:12:13.192Z,4.00
2022-08-08T11:15:02.447Z,4.07
2022-08-08T11:18:01.118Z,4.47
2022-08-08T11:20:28.190Z,4.25
2022-08-08T11:22:57.963Z,4.22
2022-08-08T11:25:53.316Z,4.35
2022-08-08T11:28:15.598Z,4.20
2022-08-08T11:30:50.317Z,4.53
2022-08-08T11:33:51.423Z,4.30
2022-08-08T11:36:14.451Z,4.32
2022-08-08T11:38:54.794Z,5.05
2022-08-08T11:41:24.447Z,4.45
2022-08-08T11:43:53.688Z,4.43
2022-08-08T11:46:24.614Z,4.63
2022-08-08T11:48:52.887Z,4.00
2022-08-08T11:51:29.470Z,4.75
2022-08-08T11:54:09.715Z,4.90
2022-08-08T11:56:55.953Z,5.28
2022-08-08T12:00:01.536Z,4.65
2022-08-08T12:02:32.372Z,5.25
2022-08-08T12:05:12.281Z,4.93
2022-08-08T12:07:54.061Z,4.50
2022-08-08T12:13:10.589Z,5.28
2022-08-08T12:15:42.204Z,4.78
2022-08-08T12:18:20.657Z,5.72
2022-08-08T12:20:50.757Z,6.50
2022-08-08T12:23:40.374Z,5.80
2022-08-08T12:26:27.315Z,6.28
2022-08-08T12:28:58.911Z,5.65
2022-08-08T12:31:39.316Z,5.82
2022-08-08T12:34:39.620Z,5.88
2022-08-08T12:37:11.274Z,5.30
2022-08-08T12:40:00.602Z,5.78
2022-08-08T12:42:27.396Z,5.20
2022-08-08T12:45:53.923Z,5.30
2022-08-08T12:48:10.096Z,5.65
2022-08-08T12:50:57.212Z,6.68
2022-08-08T12:53:37.629Z,6.32
2022-08-08T12:56:19.373Z,6.83
2022-08-08T12:58:52.208Z,7.10
2022-08-08T13:01:34.394Z,7.57
2022-08-08T13:04:19.389Z,6.95
2022-08-08T13:07:00.514Z,6.28
2022-08-08T13:10:05.300Z,6.13
2022-08-08T13:12:46.883Z,5.97
2022-08-08T13:15:16.787Z,6.13
2022-08-08T13:18:09.078Z,6.57
2022-08-08T13:20:31.276Z,5.72
2022-08-08T13:23:29.968Z,5.50
2022-08-08T13:25:50.435Z,5.03
2022-08-08T13:28:32.244Z,4.97
2022-08-08T13:31:04.495Z,4.97
2022-08-08T13:33:42.469Z,4.60
2022-08-08T13:36:11.132Z,5.00
2022-08-08T13:38:39.879Z,4.80
2022-08-08T13:41:16.855Z,5.68
2022-08-08T13:43:50.880Z,5.30
2022-08-08T13:46:26.960Z,5.45
2022-08-08T13:49:12.056Z,5.70
2022-08-08T13:51:53.998Z,5.55
2022-08-08T13:54:29.359Z,5.30
2022-08-08T13:57:18.528Z,5.97
2022-08-08T14:00:05.476Z,5.07
2022-08-08T14:02:41.255Z,5.78
2022-08-08T14:05:22.423Z,5.78
2022-08-08T14:10:49.841Z,5.68
2022-08-08T14:13:31.044Z,6.30
2022-08-08T14:16:16.048Z,5.50
2022-08-08T14:19:11.002Z,6.03
2022-08-08T14:21:48.869Z,5.13
2022-08-08T14:24:33.486Z,5.40
2022-08-08T14:27:01.776Z,5.32
2022-08-08T14:29:34.485Z,5.90
2022-08-08T14:32:11.829Z,4.55
2022-08-08T14:34:43.641Z,5.47
2022-08-08T14:37:17.771Z,4.82
2022-08-08T14:39:54.185Z,5.80
2022-08-08T14:42:35.820Z,5.88
2022-08-08T14:45:10.011Z,5.82
2022-08-08T14:47:52.328Z,5.38
2022-08-08T14:50:38.847Z,5.40
2022-08-08T14:53:14.488Z,5.38
2022-08-08T14:55:42.929Z,5.30
2022-08-08T14:58:12.040Z,5.38
2022-08-08T15:00:44.946Z,5.00
2022-08-08T15:03:15.925Z,4.85
2022-08-08T15:05:53.301Z,5.00
2022-08-08T15:08:34.778Z,5.55
2022-08-08T15:11:11.409Z,5.00
2022-08-08T15:14:01.653Z,4.90
2022-08-08T15:16:27.921Z,4.28
2022-08-08T15:18:55.258Z,5.35
2022-08-08T15:21:22.186Z,4.65
2022-08-08T15:23:52.646Z,5.93
2022-08-08T15:26:21.129Z,5.22
2022-08-08T15:28:54.229Z,4.75
2022-08-08T15:31:55.527Z,4.63
2022-08-08T15:34:18.770Z,5.18
2022-08-08T15:36:56.766Z,3.85
2022-08-08T15:39:23.622Z,4.43
2022-08-08T15:41:52.726Z,4.45
2022-08-08T15:44:21.037Z,4.00
2022-08-08T15:46:50.870Z,4.38
2022-08-08T15:49:20.769Z,5.13
2022-08-08T15:51:54.583Z,4.57
2022-08-08T15:54:39.044Z,4.57
2022-08-08T15:57:08.883Z,4.88
2022-08-08T16:00:05.861Z,4.88
2022-08-08T16:02:30.431Z,4.75
2022-08-08T16:05:01.461Z,4.38
2022-08-08T16:07:51.933Z,4.75
2022-08-08T16:13:11.481Z,4.88
2022-08-08T16:13:34.467Z,4.65
2022-08-08T16:15:57.971Z,4.55
2022-08-08T16:18:33.137Z,4.38
2022-08-08T16:21:01.156Z,4.22
2022-08-08T16:23:32.402Z,4.80
2022-08-08T16:26:04.585Z,4.85
2022-08-08T16:28:41.461Z,4.88
2022-08-08T16:31:09.421Z,4.57
2022-08-08T16:33:40.520Z,4.88
2022-08-08T16:36:12.833Z,4.78
2022-08-08T16:38:46.456Z,4.93
2022-08-08T16:41:22.698Z,5.15
2022-08-08T16:43:52.038Z,4.90
2022-08-08T16:46:36.229Z,5.50
2022-08-08T16:49:07.799Z,5.28
2022-08-08T16:55:02.050Z,5.25
2022-08-08T16:55:19.334Z,4.95
2022-08-08T16:58:11.883Z,5.38
2022-08-08T17:00:08.623Z,5.03
2022-08-08T17:02:39.693Z,5.38
2022-08-08T17:05:12.970Z,5.43
2022-08-08T17:07:42.025Z,6.10
2022-08-08T17:10:11.541Z,6.13
2022-08-08T17:12:47.043Z,5.75
2022-08-08T17:15:20.734Z,6.45
2022-08-08T17:18:02.847Z,6.32
2022-08-08T17:20:39.543Z,6.30
2022-08-08T17:23:17.750Z,6.85
2022-08-08T17:25:55.044Z,6.65
2022-08-08T17:28:30.719Z,6.13
2022-08-08T17:31:44.106Z,6.75
2022-08-08T17:34:48.660Z,7.22
2022-08-08T17:36:55.155Z,8.32
2022-08-08T17:40:04.656Z,8.13
2022-08-08T17:42:15.561Z,7.45
2022-08-08T17:44:44.055Z,8.32
2022-08-08T17:47:16.324Z,7.75
2022-08-08T17:49:53.115Z,8.30
2022-08-08T17:52:28.483Z,8.95
2022-08-08T17:54:56.881Z,8.48
2022-08-08T17:57:24.893Z,9.77
2022-08-08T17:59:58.544Z,8.60
2022-08-08T18:02:31.032Z,9.30
2022-08-08T18:04:58.754Z,8.75
2022-08-08T18:08:02.223Z,11.25
2022-08-08T18:10:15.480Z,11.43
2022-08-08T18:12:44.430Z,11.82
2022-08-08T18:15:13.570Z,11.57
2022-08-08T18:18:27.434Z,12.63
2022-08-08T18:20:42.941Z,11.77
2022-08-08T18:23:15.061Z,12.38
2022-08-08T18:25:43.308Z,12.40
2022-08-08T18:28:13.459Z,12.23
2022-08-08T18:30:42.780Z,12.25
2022-08-08T18:33:36.278Z,13.00
2022-08-08T18:36:02.758Z,12.75
2022-08-08T18:38:31.100Z,13.00
2022-08-08T18:40:59.399Z,18.77
2022-08-08T18:43:42.609Z,19.85
2022-08-08T18:46:56.558Z,18.35
2022-08-08T18:48:58.379Z,18.67
2022-08-08T18:51:53.856Z,16.50
2022-08-08T18:54:22.507Z,16.25
2022-08-08T18:56:57.156Z,16.20
2022-08-08T18:59:24.408Z,15.80
2022-08-08T19:02:27.578Z,16.00
2022-08-08T19:04:42.670Z,14.55
2022-08-08T19:07:10.602Z,15.15
2022-08-08T19:09:48.978Z,15.15
2022-08-08T19:12:26.718Z,15.77
2022-08-08T19:14:53.747Z,14.02
2022-08-08T19:17:28.967Z,15.25
2022-08-08T19:20:09.028Z,16.02
2022-08-08T19:22:36.423Z,19.83
2022-08-08T19:26:02.324Z,17.70
2022-08-08T19:27:57.497Z,20.70
2022-08-08T19:30:27.198Z,21.15
2022-08-08T19:33:00.773Z,22.88
2022-08-08T19:35:44.045Z,23.63
2022-08-08T19:38:17.242Z,22.95
2022-08-08T19:40:54.601Z,24.42
2022-08-08T19:43:28.357Z,25.52
2022-08-08T19:48:29.336Z,25.00
2022-08-08T19:50:59.071Z,25.65
2022-08-08T19:53:54.203Z,26.02
2022-08-08T19:56:13.803Z,26.27
2022-08-08T19:58:43.302Z,25.48
2022-08-08T20:01:22.717Z,24.95
2022-08-08T20:04:00.988Z,24.85
2022-08-08T20:06:29.678Z,23.90
2022-08-08T20:08:56.826Z,23.10
2022-08-08T20:11:24.479Z,23.45
2022-08-08T20:14:32.212Z,23.08
2022-08-08T20:16:39.631Z,22.08
2022-08-08T20:19:08.817Z,21.27
2022-08-08T20:21:38.093Z,22.00
2022-08-08T20:24:07.791Z,20.63
2022-08-08T20:26:38.409Z,21.60
2022-08-08T20:29:08.829Z,19.95
2022-08-08T20:32:08.066Z,20.13
2022-08-08T20:34:29.944Z,20.60
2022-08-08T20:37:03.109Z,21.42
2022-08-08T20:39:39.116Z,21.60
2022-08-08T20:42:28.224Z,20.50
2022-08-08T20:44:56.790Z,21.20
2022-08-08T20:47:24.068Z,20.42
2022-08-08T20:49:54.482Z,20.40
2022-08-08T20:52:25.937Z,20.13
2022-08-08T20:54:52.732Z,20.38
2022-08-08T20:57:20.998Z,20.95
2022-08-08T20:59:48.716Z,20.75
2022-08-08T21:02:25.391Z,18.70
2022-08-08T21:05:00.546Z,18.23
2022-08-08T21:07:47.998Z,18.60
2022-08-08T21:10:17.926Z,18.70
2022-08-08T21:12:52.956Z,18.17
2022-08-08T21:16:04.610Z,17.95
2022-08-08T21:18:09.739Z,17.85
2022-08-08T21:20:39.092Z,18.38
2022-08-08T21:23:09.185Z,19.45
2022-08-08T21:25:36.786Z,19.23
2022-08-08T21:28:14.954Z,18.92
2022-08-08T21:30:45.265Z,18.85
2022-08-08T21:33:16.972Z,18.77
2022-08-08T21:36:17.682Z,18.45
2022-08-08T21:38:31.131Z,18.95
2022-08-08T21:40:58.219Z,19.00
2022-08-08T21:43:32.898Z,18.33
2022-08-08T21:48:07.325Z,20.33
2022-08-08T21:48:57.298Z,17.00
2022-08-08T21:54:27.209Z,19.00
2022-08-08T21:54:58.141Z,18.73
2022-08-08T21:57:08.218Z,19.88
2022-08-08T22:00:02.894Z,19.15
2022-08-08T22:02:24.929Z,19.95
2022-08-08T22:04:55.936Z,20.83
2022-08-08T22:07:40.248Z,20.67
2022-08-08T22:10:18.270Z,21.42
2022-08-08T22:13:18.325Z,20.98
2022-08-08T22:15:58.503Z,21.15
2022-08-08T22:18:33.040Z,20.40
2022-08-08T22:21:11.212Z,22.73
2022-08-08T22:23:52.216Z,24.35
2022-08-08T22:26:27.764Z,22.88
2022-08-08T22:29:12.882Z,23.05
2022-08-08T22:31:44.130Z,22.67
2022-08-08T22:34:30.887Z,22.15
2022-08-08T22:36:57.689Z,23.40
2022-08-08T22:39:28.316Z,23.67
2022-08-08T22:42:10.211Z,23.40
2022-08-08T22:44:37.967Z,24.08
2022-08-08T22:47:18.067Z,23.33
2022-08-08T22:49:45.152Z,23.45
2022-08-08T22:52:25.832Z,23.42
2022-08-08T22:54:58.810Z,22.95
2022-08-08T22:57:43.738Z,23.98
2022-08-08T23:00:13.466Z,24.75
2022-08-08T23:02:40.478Z,24.25
2022-08-08T23:05:14.357Z,23.60
2022-08-08T23:07:51.202Z,23.73
2022-08-08T23:10:26.846Z,21.98
2022-08-08T23:12:55.226Z,23.30
2022-08-08T23:16:42.181Z,23.92
2022-08-08T23:18:11.648Z,23.00
2022-08-08T23:20:40.809Z,24.42
2022-08-08T23:23:11.675Z,23.50
2022-08-08T23:25:47.907Z,24.52
2022-08-08T23:28:18.018Z,23.90
2022-08-08T23:30:46.942Z,23.90
2022-08-08T23:33:19.395Z,23.35
2022-08-08T23:36:07.868Z,23.52
2022-08-08T23:38:41.546Z,23.52
2022-08-08T23:41:17.407Z,24.90
2022-08-08T23:43:54.048Z,26.10
2022-08-08T23:49:04.914Z,23.55
2022-08-08T23:49:18.259Z,25.08
2022-08-08T23:52:06.057Z,23.98
2022-08-08T23:54:42.510Z,24.30
2022-08-08T23:57:27.735Z,25.95
